sensor_id;sensor_type;location;lat;lon;timestamp;P1;durP1;ratioP1;P2;durP2;ratioP2
78298;SDS011;67556;55.656;12.590;2024-03-08T00:00:28;19.30;;;10.65;;
78298;SDS011;67556;55.656;12.590;2024-03-08T00:02:56;16.85;;;9.90;;
78298;SDS011;67556;55.656;12.590;2024-03-08T00:05:22;19.05;;;10.55;;
78298;SDS011;67556;55.656;12.590;2024-03-08T00:07:49;18.35;;;11.00;;
78298;SDS011;67556;55.656;12.590;2024-03-08T00:10:15;19.38;;;11.10;;
78298;SDS011;67556;55.656;12.590;2024-03-08T00:12:42;17.70;;;10.68;;
78298;SDS011;67556;55.656;12.590;2024-03-08T00:15:09;16.70;;;10.68;;
78298;SDS011;67556;55.656;12.590;2024-03-08T00:17:39;16.02;;;10.40;;
78298;SDS011;67556;55.656;12.590;2024-03-08T00:20:07;17.70;;;9.98;;
78298;SDS011;67556;55.656;12.590;2024-03-08T00:22:34;14.98;;;10.18;;
78298;SDS011;67556;55.656;12.590;2024-03-08T00:25:01;17.35;;;9.48;;
78298;SDS011;67556;55.656;12.590;2024-03-08T00:27:28;15.20;;;9.60;;
78298;SDS011;67556;55.656;12.590;2024-03-08T00:29:56;17.92;;;11.00;;
78298;SDS011;67556;55.656;12.590;2024-03-08T00:32:23;17.33;;;10.30;;
78298;SDS011;67556;55.656;12.590;2024-03-08T00:34:50;18.05;;;10.80;;
78298;SDS011;67556;55.656;12.590;2024-03-08T00:37:18;17.48;;;10.35;;
78298;SDS011;67556;55.656;12.590;2024-03-08T00:39:48;16.23;;;9.60;;
78298;SDS011;67556;55.656;12.590;2024-03-08T00:42:15;15.65;;;9.88;;
78298;SDS011;67556;55.656;12.590;2024-03-08T00:44:42;14.68;;;8.90;;
78298;SDS011;67556;55.656;12.590;2024-03-08T00:47:09;14.00;;;9.63;;
78298;SDS011;67556;55.656;12.590;2024-03-08T00:49:37;16.17;;;9.25;;
78298;SDS011;67556;55.656;12.590;2024-03-08T00:52:04;16.23;;;9.82;;
78298;SDS011;67556;55.656;12.590;2024-03-08T00:54:35;15.25;;;9.00;;
78298;SDS011;67556;55.656;12.590;2024-03-08T00:57:04;12.85;;;8.75;;
78298;SDS011;67556;55.656;12.590;2024-03-08T00:59:32;12.98;;;8.52;;
78298;SDS011;67556;55.656;12.590;2024-03-08T01:01:59;12.90;;;8.55;;
78298;SDS011;67556;55.656;12.590;2024-03-08T01:04:25;12.30;;;9.27;;
78298;SDS011;67556;55.656;12.590;2024-03-08T01:06:54;10.90;;;8.13;;
78298;SDS011;67556;55.656;12.590;2024-03-08T01:09:22;13.23;;;9.07;;
78298;SDS011;67556;55.656;12.590;2024-03-08T01:11:50;14.38;;;8.77;;
78298;SDS011;67556;55.656;12.590;2024-03-08T01:14:21;13.32;;;8.73;;
78298;SDS011;67556;55.656;12.590;2024-03-08T01:16:51;11.52;;;7.60;;
78298;SDS011;67556;55.656;12.590;2024-03-08T01:19:38;13.05;;;8.50;;
78298;SDS011;67556;55.656;12.590;2024-03-08T01:22:04;12.68;;;8.55;;
78298;SDS011;67556;55.656;12.590;2024-03-08T01:24:32;13.18;;;8.27;;
78298;SDS011;67556;55.656;12.590;2024-03-08T01:27:02;11.57;;;8.15;;
78298;SDS011;67556;55.656;12.590;2024-03-08T01:29:28;12.20;;;7.75;;
78298;SDS011;67556;55.656;12.590;2024-03-08T01:31:55;12.82;;;8.20;;
78298;SDS011;67556;55.656;12.590;2024-03-08T01:34:28;13.82;;;8.40;;
78298;SDS011;67556;55.656;12.590;2024-03-08T01:37:08;15.05;;;8.38;;
78298;SDS011;67556;55.656;12.590;2024-03-08T01:39:34;14.27;;;8.13;;
78298;SDS011;67556;55.656;12.590;2024-03-08T01:42:08;15.05;;;9.43;;
78298;SDS011;67556;55.656;12.590;2024-03-08T01:44:37;11.07;;;7.95;;
78298;SDS011;67556;55.656;12.590;2024-03-08T01:47:05;12.75;;;8.63;;
78298;SDS011;67556;55.656;12.590;2024-03-08T01:49:42;12.38;;;8.35;;
78298;SDS011;67556;55.656;12.590;2024-03-08T01:52:09;12.52;;;8.48;;
78298;SDS011;67556;55.656;12.590;2024-03-08T01:54:36;11.50;;;7.55;;
78298;SDS011;67556;55.656;12.590;2024-03-08T01:57:03;12.43;;;7.47;;
78298;SDS011;67556;55.656;12.590;2024-03-08T01:59:33;10.93;;;8.10;;
78298;SDS011;67556;55.656;12.590;2024-03-08T02:02:14;14.02;;;8.10;;
78298;SDS011;67556;55.656;12.590;2024-03-08T02:04:40;12.32;;;8.95;;
78298;SDS011;67556;55.656;12.590;2024-03-08T02:07:15;14.98;;;8.13;;
78298;SDS011;67556;55.656;12.590;2024-03-08T02:09:43;12.32;;;8.18;;
78298;SDS011;67556;55.656;12.590;2024-03-08T02:12:15;13.18;;;7.63;;
78298;SDS011;67556;55.656;12.590;2024-03-08T02:14:44;13.85;;;9.48;;
78298;SDS011;67556;55.656;12.590;2024-03-08T02:17:17;15.20;;;8.60;;
78298;SDS011;67556;55.656;12.590;2024-03-08T02:19:45;13.73;;;8.02;;
78298;SDS011;67556;55.656;12.590;2024-03-08T02:22:13;17.08;;;8.55;;
78298;SDS011;67556;55.656;12.590;2024-03-08T02:24:53;15.60;;;9.85;;
78298;SDS011;67556;55.656;12.590;2024-03-08T02:27:23;14.82;;;8.57;;
78298;SDS011;67556;55.656;12.590;2024-03-08T02:30:08;15.88;;;9.05;;
78298;SDS011;67556;55.656;12.590;2024-03-08T02:32:35;16.75;;;9.90;;
78298;SDS011;67556;55.656;12.590;2024-03-08T02:35:02;17.45;;;10.07;;
78298;SDS011;67556;55.656;12.590;2024-03-08T02:37:32;14.88;;;9.02;;
78298;SDS011;67556;55.656;12.590;2024-03-08T02:40:13;15.15;;;9.70;;
78298;SDS011;67556;55.656;12.590;2024-03-08T02:42:40;14.80;;;8.77;;
78298;SDS011;67556;55.656;12.590;2024-03-08T02:45:25;22.20;;;10.98;;
78298;SDS011;67556;55.656;12.590;2024-03-08T02:47:57;24.25;;;11.43;;
78298;SDS011;67556;55.656;12.590;2024-03-08T02:50:23;21.85;;;11.27;;
78298;SDS011;67556;55.656;12.590;2024-03-08T02:52:54;27.02;;;13.13;;
78298;SDS011;67556;55.656;12.590;2024-03-08T02:55:20;26.33;;;12.75;;
78298;SDS011;67556;55.656;12.590;2024-03-08T02:57:53;24.20;;;13.57;;
78298;SDS011;67556;55.656;12.590;2024-03-08T03:00:20;30.65;;;13.80;;
78298;SDS011;67556;55.656;12.590;2024-03-08T03:02:48;28.15;;;14.82;;
78298;SDS011;67556;55.656;12.590;2024-03-08T03:05:17;26.00;;;12.80;;
78298;SDS011;67556;55.656;12.590;2024-03-08T03:07:45;27.00;;;13.50;;
78298;SDS011;67556;55.656;12.590;2024-03-08T03:10:16;27.70;;;14.18;;
78298;SDS011;67556;55.656;12.590;2024-03-08T03:12:44;31.88;;;13.77;;
78298;SDS011;67556;55.656;12.590;2024-03-08T03:15:11;30.35;;;13.75;;
78298;SDS011;67556;55.656;12.590;2024-03-08T03:17:39;32.92;;;15.57;;
78298;SDS011;67556;55.656;12.590;2024-03-08T03:20:06;33.42;;;14.82;;
78298;SDS011;67556;55.656;12.590;2024-03-08T03:22:36;31.20;;;14.77;;
78298;SDS011;67556;55.656;12.590;2024-03-08T03:25:03;31.02;;;13.80;;
78298;SDS011;67556;55.656;12.590;2024-03-08T03:27:41;29.40;;;14.80;;
78298;SDS011;67556;55.656;12.590;2024-03-08T03:30:16;28.65;;;14.85;;
78298;SDS011;67556;55.656;12.590;2024-03-08T03:32:48;31.33;;;15.27;;
78298;SDS011;67556;55.656;12.590;2024-03-08T03:35:18;36.25;;;15.45;;
78298;SDS011;67556;55.656;12.590;2024-03-08T03:37:45;35.22;;;14.18;;
78298;SDS011;67556;55.656;12.590;2024-03-08T03:40:27;33.28;;;15.20;;
78298;SDS011;67556;55.656;12.590;2024-03-08T03:42:59;35.78;;;15.80;;
78298;SDS011;67556;55.656;12.590;2024-03-08T03:45:25;34.63;;;14.60;;
78298;SDS011;67556;55.656;12.590;2024-03-08T03:47:52;36.65;;;16.75;;
78298;SDS011;67556;55.656;12.590;2024-03-08T03:50:18;33.55;;;14.60;;
78298;SDS011;67556;55.656;12.590;2024-03-08T03:52:46;29.67;;;15.07;;
78298;SDS011;67556;55.656;12.590;2024-03-08T03:55:12;34.10;;;15.55;;
78298;SDS011;67556;55.656;12.590;2024-03-08T03:57:39;35.45;;;14.85;;
78298;SDS011;67556;55.656;12.590;2024-03-08T04:02:48;34.72;;;14.23;;
78298;SDS011;67556;55.656;12.590;2024-03-08T04:05:16;31.05;;;14.00;;
78298;SDS011;67556;55.656;12.590;2024-03-08T04:07:43;33.83;;;16.40;;
78298;SDS011;67556;55.656;12.590;2024-03-08T04:10:10;39.92;;;15.52;;
78298;SDS011;67556;55.656;12.590;2024-03-08T04:12:38;33.95;;;14.57;;
78298;SDS011;67556;55.656;12.590;2024-03-08T04:15:04;29.17;;;14.00;;
78298;SDS011;67556;55.656;12.590;2024-03-08T04:17:32;37.92;;;15.35;;
78298;SDS011;67556;55.656;12.590;2024-03-08T04:20:02;41.08;;;15.75;;
78298;SDS011;67556;55.656;12.590;2024-03-08T04:22:34;41.05;;;17.10;;
78298;SDS011;67556;55.656;12.590;2024-03-08T04:25:01;37.88;;;15.95;;
78298;SDS011;67556;55.656;12.590;2024-03-08T04:27:28;42.35;;;18.35;;
78298;SDS011;67556;55.656;12.590;2024-03-08T04:29:54;40.70;;;17.55;;
78298;SDS011;67556;55.656;12.590;2024-03-08T04:32:22;36.45;;;16.25;;
78298;SDS011;67556;55.656;12.590;2024-03-08T04:34:48;35.60;;;15.05;;
78298;SDS011;67556;55.656;12.590;2024-03-08T04:37:16;37.67;;;15.88;;
78298;SDS011;67556;55.656;12.590;2024-03-08T04:39:46;37.13;;;15.45;;
78298;SDS011;67556;55.656;12.590;2024-03-08T04:42:12;37.63;;;14.20;;
78298;SDS011;67556;55.656;12.590;2024-03-08T04:44:39;28.48;;;14.77;;
78298;SDS011;67556;55.656;12.590;2024-03-08T04:47:12;35.28;;;16.10;;
78298;SDS011;67556;55.656;12.590;2024-03-08T04:49:39;37.22;;;16.70;;
78298;SDS011;67556;55.656;12.590;2024-03-08T04:52:07;36.33;;;17.05;;
78298;SDS011;67556;55.656;12.590;2024-03-08T04:54:35;34.10;;;15.20;;
78298;SDS011;67556;55.656;12.590;2024-03-08T04:57:02;33.75;;;16.75;;
78298;SDS011;67556;55.656;12.590;2024-03-08T04:59:29;36.75;;;15.18;;
78298;SDS011;67556;55.656;12.590;2024-03-08T05:01:56;40.92;;;17.27;;
78298;SDS011;67556;55.656;12.590;2024-03-08T05:04:22;35.67;;;16.02;;
78298;SDS011;67556;55.656;12.590;2024-03-08T05:06:48;35.15;;;15.38;;
78298;SDS011;67556;55.656;12.590;2024-03-08T05:09:16;37.78;;;16.70;;
78298;SDS011;67556;55.656;12.590;2024-03-08T05:11:46;40.03;;;17.10;;
78298;SDS011;67556;55.656;12.590;2024-03-08T05:14:13;39.10;;;15.73;;
78298;SDS011;67556;55.656;12.590;2024-03-08T05:16:41;38.80;;;17.13;;
78298;SDS011;67556;55.656;12.590;2024-03-08T05:19:08;34.75;;;16.00;;
78298;SDS011;67556;55.656;12.590;2024-03-08T05:21:36;31.40;;;14.60;;
78298;SDS011;67556;55.656;12.590;2024-03-08T05:24:04;37.65;;;16.92;;
78298;SDS011;67556;55.656;12.590;2024-03-08T05:26:31;41.13;;;16.75;;
78298;SDS011;67556;55.656;12.590;2024-03-08T05:29:01;32.42;;;15.55;;
78298;SDS011;67556;55.656;12.590;2024-03-08T05:31:31;28.70;;;13.43;;
78298;SDS011;67556;55.656;12.590;2024-03-08T05:34:03;28.73;;;13.52;;
78298;SDS011;67556;55.656;12.590;2024-03-08T05:36:30;26.77;;;13.65;;
78298;SDS011;67556;55.656;12.590;2024-03-08T05:38:57;29.17;;;13.38;;
78298;SDS011;67556;55.656;12.590;2024-03-08T05:41:23;27.50;;;12.35;;
78298;SDS011;67556;55.656;12.590;2024-03-08T05:43:51;27.40;;;14.60;;
78298;SDS011;67556;55.656;12.590;2024-03-08T05:46:20;31.80;;;14.30;;
78298;SDS011;67556;55.656;12.590;2024-03-08T05:48:47;28.60;;;14.40;;
78298;SDS011;67556;55.656;12.590;2024-03-08T05:51:13;31.92;;;14.95;;
78298;SDS011;67556;55.656;12.590;2024-03-08T05:53:40;30.45;;;14.95;;
78298;SDS011;67556;55.656;12.590;2024-03-08T05:56:08;30.08;;;14.10;;
78298;SDS011;67556;55.656;12.590;2024-03-08T05:58:42;32.75;;;15.25;;
78298;SDS011;67556;55.656;12.590;2024-03-08T06:01:09;32.85;;;14.82;;
78298;SDS011;67556;55.656;12.590;2024-03-08T06:03:39;28.33;;;13.20;;
78298;SDS011;67556;55.656;12.590;2024-03-08T06:06:18;25.63;;;13.15;;
78298;SDS011;67556;55.656;12.590;2024-03-08T06:08:46;24.40;;;13.00;;
78298;SDS011;67556;55.656;12.590;2024-03-08T06:11:20;25.55;;;12.57;;
78298;SDS011;67556;55.656;12.590;2024-03-08T06:13:46;25.55;;;12.88;;
78298;SDS011;67556;55.656;12.590;2024-03-08T06:16:13;22.08;;;12.57;;
78298;SDS011;67556;55.656;12.590;2024-03-08T06:18:42;23.70;;;10.88;;
78298;SDS011;67556;55.656;12.590;2024-03-08T06:21:09;20.77;;;11.40;;
78298;SDS011;67556;55.656;12.590;2024-03-08T06:23:36;20.40;;;11.40;;
78298;SDS011;67556;55.656;12.590;2024-03-08T06:26:04;19.50;;;10.48;;
78298;SDS011;67556;55.656;12.590;2024-03-08T06:28:31;21.95;;;11.13;;
78298;SDS011;67556;55.656;12.590;2024-03-08T06:30:59;18.98;;;10.27;;
78298;SDS011;67556;55.656;12.590;2024-03-08T06:33:25;17.60;;;10.20;;
78298;SDS011;67556;55.656;12.590;2024-03-08T06:35:55;19.05;;;10.77;;
78298;SDS011;67556;55.656;12.590;2024-03-08T06:38:28;17.50;;;8.70;;
78298;SDS011;67556;55.656;12.590;2024-03-08T06:40:57;18.02;;;9.77;;
78298;SDS011;67556;55.656;12.590;2024-03-08T06:43:29;16.55;;;9.93;;
78298;SDS011;67556;55.656;12.590;2024-03-08T06:46:00;16.23;;;9.30;;
78298;SDS011;67556;55.656;12.590;2024-03-08T06:48:29;14.73;;;7.13;;
78298;SDS011;67556;55.656;12.590;2024-03-08T06:50:58;14.02;;;7.60;;
78298;SDS011;67556;55.656;12.590;2024-03-08T06:53:25;11.38;;;6.43;;
78298;SDS011;67556;55.656;12.590;2024-03-08T06:55:57;13.82;;;7.45;;
78298;SDS011;67556;55.656;12.590;2024-03-08T06:58:24;14.93;;;6.85;;
78298;SDS011;67556;55.656;12.590;2024-03-08T07:00:51;12.02;;;6.82;;
78298;SDS011;67556;55.656;12.590;2024-03-08T07:03:17;12.00;;;5.72;;
78298;SDS011;67556;55.656;12.590;2024-03-08T07:05:45;10.48;;;5.78;;
78298;SDS011;67556;55.656;12.590;2024-03-08T07:08:19;11.70;;;5.82;;
78298;SDS011;67556;55.656;12.590;2024-03-08T07:10:48;9.57;;;5.47;;
78298;SDS011;67556;55.656;12.590;2024-03-08T07:13:15;8.45;;;5.00;;
78298;SDS011;67556;55.656;12.590;2024-03-08T07:15:43;7.47;;;4.15;;
78298;SDS011;67556;55.656;12.590;2024-03-08T07:18:10;11.43;;;4.35;;
78298;SDS011;67556;55.656;12.590;2024-03-08T07:20:40;14.55;;;4.55;;
78298;SDS011;67556;55.656;12.590;2024-03-08T07:23:07;14.48;;;5.93;;
78298;SDS011;67556;55.656;12.590;2024-03-08T07:25:35;8.50;;;4.65;;
78298;SDS011;67556;55.656;12.590;2024-03-08T07:28:04;11.07;;;5.65;;
78298;SDS011;67556;55.656;12.590;2024-03-08T07:30:31;10.35;;;5.53;;
78298;SDS011;67556;55.656;12.590;2024-03-08T07:33:17;10.18;;;5.25;;
78298;SDS011;67556;55.656;12.590;2024-03-08T07:35:44;11.73;;;5.78;;
78298;SDS011;67556;55.656;12.590;2024-03-08T07:38:23;10.85;;;5.60;;
78298;SDS011;67556;55.656;12.590;2024-03-08T07:40:52;8.88;;;5.50;;
78298;SDS011;67556;55.656;12.590;2024-03-08T07:43:19;12.55;;;5.43;;
78298;SDS011;67556;55.656;12.590;2024-03-08T07:45:47;10.35;;;6.25;;
78298;SDS011;67556;55.656;12.590;2024-03-08T07:48:13;12.10;;;5.25;;
78298;SDS011;67556;55.656;12.590;2024-03-08T07:50:41;8.90;;;5.38;;
78298;SDS011;67556;55.656;12.590;2024-03-08T07:53:10;10.57;;;6.18;;
78298;SDS011;67556;55.656;12.590;2024-03-08T07:55:36;17.65;;;7.07;;
78298;SDS011;67556;55.656;12.590;2024-03-08T07:58:17;11.32;;;6.70;;
78298;SDS011;67556;55.656;12.590;2024-03-08T08:00:45;12.02;;;6.68;;
78298;SDS011;67556;55.656;12.590;2024-03-08T08:03:22;15.65;;;6.53;;
78298;SDS011;67556;55.656;12.590;2024-03-08T08:05:49;12.25;;;6.22;;
78298;SDS011;67556;55.656;12.590;2024-03-08T08:08:16;11.45;;;6.32;;
78298;SDS011;67556;55.656;12.590;2024-03-08T08:10:43;12.02;;;6.60;;
78298;SDS011;67556;55.656;12.590;2024-03-08T08:13:12;12.35;;;6.65;;
78298;SDS011;67556;55.656;12.590;2024-03-08T08:15:40;11.90;;;6.25;;
78298;SDS011;67556;55.656;12.590;2024-03-08T08:18:08;11.25;;;6.50;;
78298;SDS011;67556;55.656;12.590;2024-03-08T08:20:35;11.88;;;6.47;;
78298;SDS011;67556;55.656;12.590;2024-03-08T08:23:04;9.15;;;5.63;;
78298;SDS011;67556;55.656;12.590;2024-03-08T08:25:31;10.52;;;6.15;;
78298;SDS011;67556;55.656;12.590;2024-03-08T08:27:59;10.80;;;5.45;;
78298;SDS011;67556;55.656;12.590;2024-03-08T08:30:34;9.18;;;5.32;;
78298;SDS011;67556;55.656;12.590;2024-03-08T08:33:02;9.48;;;5.22;;
78298;SDS011;67556;55.656;12.590;2024-03-08T08:35:30;12.32;;;6.47;;
78298;SDS011;67556;55.656;12.590;2024-03-08T08:37:57;9.23;;;5.82;;
78298;SDS011;67556;55.656;12.590;2024-03-08T08:40:24;9.30;;;5.32;;
78298;SDS011;67556;55.656;12.590;2024-03-08T08:42:51;8.93;;;4.93;;
78298;SDS011;67556;55.656;12.590;2024-03-08T08:45:20;9.40;;;5.15;;
78298;SDS011;67556;55.656;12.590;2024-03-08T08:47:47;9.77;;;5.55;;
78298;SDS011;67556;55.656;12.590;2024-03-08T08:50:17;9.63;;;5.63;;
78298;SDS011;67556;55.656;12.590;2024-03-08T08:52:48;11.35;;;5.65;;
78298;SDS011;67556;55.656;12.590;2024-03-08T08:55:14;8.60;;;5.20;;
78298;SDS011;67556;55.656;12.590;2024-03-08T08:57:46;8.90;;;5.53;;
78298;SDS011;67556;55.656;12.590;2024-03-08T09:00:12;12.88;;;5.68;;
78298;SDS011;67556;55.656;12.590;2024-03-08T09:02:41;11.77;;;6.07;;
78298;SDS011;67556;55.656;12.590;2024-03-08T09:05:08;8.20;;;5.50;;
78298;SDS011;67556;55.656;12.590;2024-03-08T09:07:36;8.40;;;4.93;;
78298;SDS011;67556;55.656;12.590;2024-03-08T09:10:03;9.15;;;5.40;;
78298;SDS011;67556;55.656;12.590;2024-03-08T09:12:30;8.27;;;4.97;;
78298;SDS011;67556;55.656;12.590;2024-03-08T09:14:57;8.32;;;5.57;;
78298;SDS011;67556;55.656;12.590;2024-03-08T09:17:26;9.32;;;5.30;;
78298;SDS011;67556;55.656;12.590;2024-03-08T09:19:53;10.57;;;6.18;;
78298;SDS011;67556;55.656;12.590;2024-03-08T09:22:19;9.02;;;5.60;;
78298;SDS011;67556;55.656;12.590;2024-03-08T09:24:48;10.25;;;5.43;;
78298;SDS011;67556;55.656;12.590;2024-03-08T09:27:14;9.23;;;5.05;;
78298;SDS011;67556;55.656;12.590;2024-03-08T09:29:41;7.32;;;5.35;;
78298;SDS011;67556;55.656;12.590;2024-03-08T09:32:08;9.35;;;5.88;;
78298;SDS011;67556;55.656;12.590;2024-03-08T09:34:37;7.53;;;4.70;;
78298;SDS011;67556;55.656;12.590;2024-03-08T09:37:04;6.68;;;4.68;;
78298;SDS011;67556;55.656;12.590;2024-03-08T09:39:30;6.45;;;4.47;;
78298;SDS011;67556;55.656;12.590;2024-03-08T09:42:02;6.90;;;4.90;;
78298;SDS011;67556;55.656;12.590;2024-03-08T09:44:29;9.32;;;5.25;;
78298;SDS011;67556;55.656;12.590;2024-03-08T09:46:56;7.05;;;4.95;;
78298;SDS011;67556;55.656;12.590;2024-03-08T09:49:24;10.38;;;5.70;;
78298;SDS011;67556;55.656;12.590;2024-03-08T09:51:50;8.57;;;5.82;;
78298;SDS011;67556;55.656;12.590;2024-03-08T09:54:17;8.95;;;5.43;;
78298;SDS011;67556;55.656;12.590;2024-03-08T09:56:45;10.52;;;5.88;;
78298;SDS011;67556;55.656;12.590;2024-03-08T09:59:14;8.25;;;5.43;;
78298;SDS011;67556;55.656;12.590;2024-03-08T10:02:06;8.25;;;5.80;;
78298;SDS011;67556;55.656;12.590;2024-03-08T10:04:34;8.45;;;5.53;;
78298;SDS011;67556;55.656;12.590;2024-03-08T10:07:03;6.97;;;5.13;;
78298;SDS011;67556;55.656;12.590;2024-03-08T10:09:29;9.75;;;5.72;;
78298;SDS011;67556;55.656;12.590;2024-03-08T10:11:56;9.85;;;5.95;;
78298;SDS011;67556;55.656;12.590;2024-03-08T10:14:24;8.70;;;6.18;;
78298;SDS011;67556;55.656;12.590;2024-03-08T10:16:52;6.95;;;5.60;;
78298;SDS011;67556;55.656;12.590;2024-03-08T10:19:20;8.82;;;5.85;;
78298;SDS011;67556;55.656;12.590;2024-03-08T10:21:48;9.63;;;5.32;;
78298;SDS011;67556;55.656;12.590;2024-03-08T10:24:15;7.68;;;5.82;;
78298;SDS011;67556;55.656;12.590;2024-03-08T10:26:43;8.70;;;6.10;;
78298;SDS011;67556;55.656;12.590;2024-03-08T10:29:10;9.63;;;6.20;;
78298;SDS011;67556;55.656;12.590;2024-03-08T10:31:41;11.82;;;6.68;;
78298;SDS011;67556;55.656;12.590;2024-03-08T10:34:16;7.05;;;5.57;;
78298;SDS011;67556;55.656;12.590;2024-03-08T10:36:42;8.45;;;5.35;;
78298;SDS011;67556;55.656;12.590;2024-03-08T10:39:10;7.20;;;5.13;;
78298;SDS011;67556;55.656;12.590;2024-03-08T10:41:42;6.93;;;5.20;;
78298;SDS011;67556;55.656;12.590;2024-03-08T10:44:15;5.75;;;4.63;;
78298;SDS011;67556;55.656;12.590;2024-03-08T10:46:54;7.07;;;4.47;;
78298;SDS011;67556;55.656;12.590;2024-03-08T10:49:30;6.53;;;4.47;;
78298;SDS011;67556;55.656;12.590;2024-03-08T10:52:02;7.28;;;4.13;;
78298;SDS011;67556;55.656;12.590;2024-03-08T10:54:29;6.68;;;3.95;;
78298;SDS011;67556;55.656;12.590;2024-03-08T10:56:58;4.70;;;3.70;;
78298;SDS011;67556;55.656;12.590;2024-03-08T10:59:26;6.32;;;4.18;;
78298;SDS011;67556;55.656;12.590;2024-03-08T11:01:55;4.47;;;3.28;;
78298;SDS011;67556;55.656;12.590;2024-03-08T11:04:21;5.47;;;3.70;;
78298;SDS011;67556;55.656;12.590;2024-03-08T11:06:50;4.40;;;3.75;;
78298;SDS011;67556;55.656;12.590;2024-03-08T11:09:27;5.97;;;3.92;;
78298;SDS011;67556;55.656;12.590;2024-03-08T11:14:42;6.32;;;4.13;;
78298;SDS011;67556;55.656;12.590;2024-03-08T11:17:10;5.50;;;4.15;;
78298;SDS011;67556;55.656;12.590;2024-03-08T11:19:37;6.80;;;3.92;;
78298;SDS011;67556;55.656;12.590;2024-03-08T11:22:05;5.95;;;3.58;;
78298;SDS011;67556;55.656;12.590;2024-03-08T11:24:36;5.72;;;3.70;;
78298;SDS011;67556;55.656;12.590;2024-03-08T11:27:05;6.65;;;4.07;;
78298;SDS011;67556;55.656;12.590;2024-03-08T11:29:32;5.40;;;3.28;;
78298;SDS011;67556;55.656;12.590;2024-03-08T11:32:03;5.35;;;3.92;;
78298;SDS011;67556;55.656;12.590;2024-03-08T11:34:31;4.72;;;3.88;;
78298;SDS011;67556;55.656;12.590;2024-03-08T11:36:58;5.20;;;3.10;;
78298;SDS011;67556;55.656;12.590;2024-03-08T11:39:25;4.47;;;3.10;;
78298;SDS011;67556;55.656;12.590;2024-03-08T11:41:54;5.55;;;3.88;;
78298;SDS011;67556;55.656;12.590;2024-03-08T11:44:24;7.68;;;4.03;;
78298;SDS011;67556;55.656;12.590;2024-03-08T11:46:53;5.78;;;4.32;;
78298;SDS011;67556;55.656;12.590;2024-03-08T11:49:20;5.57;;;3.92;;
78298;SDS011;67556;55.656;12.590;2024-03-08T11:51:50;5.88;;;3.97;;
78298;SDS011;67556;55.656;12.590;2024-03-08T11:54:18;6.65;;;4.25;;
78298;SDS011;67556;55.656;12.590;2024-03-08T11:56:45;6.03;;;3.97;;
78298;SDS011;67556;55.656;12.590;2024-03-08T11:59:13;6.68;;;3.95;;
78298;SDS011;67556;55.656;12.590;2024-03-08T12:01:40;5.10;;;4.13;;
78298;SDS011;67556;55.656;12.590;2024-03-08T12:04:06;5.63;;;4.35;;
78298;SDS011;67556;55.656;12.590;2024-03-08T12:06:36;5.53;;;3.83;;
78298;SDS011;67556;55.656;12.590;2024-03-08T12:09:05;6.00;;;4.18;;
78298;SDS011;67556;55.656;12.590;2024-03-08T12:11:35;8.63;;;4.28;;
78298;SDS011;67556;55.656;12.590;2024-03-08T12:14:04;5.53;;;3.45;;
78298;SDS011;67556;55.656;12.590;2024-03-08T12:16:32;5.13;;;3.53;;
78298;SDS011;67556;55.656;12.590;2024-03-08T12:18:59;5.55;;;4.13;;
78298;SDS011;67556;55.656;12.590;2024-03-08T12:21:26;7.18;;;4.30;;
78298;SDS011;67556;55.656;12.590;2024-03-08T12:24:04;6.38;;;3.90;;
78298;SDS011;67556;55.656;12.590;2024-03-08T12:26:32;5.97;;;4.32;;
78298;SDS011;67556;55.656;12.590;2024-03-08T12:29:15;4.55;;;3.47;;
78298;SDS011;67556;55.656;12.590;2024-03-08T12:31:42;6.13;;;4.05;;
78298;SDS011;67556;55.656;12.590;2024-03-08T12:34:10;5.47;;;3.72;;
78298;SDS011;67556;55.656;12.590;2024-03-08T12:36:44;5.88;;;3.85;;
78298;SDS011;67556;55.656;12.590;2024-03-08T12:39:16;6.28;;;3.78;;
78298;SDS011;67556;55.656;12.590;2024-03-08T12:41:47;6.20;;;4.07;;
78298;SDS011;67556;55.656;12.590;2024-03-08T12:44:17;7.75;;;4.63;;
78298;SDS011;67556;55.656;12.590;2024-03-08T12:46:44;6.38;;;4.35;;
78298;SDS011;67556;55.656;12.590;2024-03-08T12:49:11;6.05;;;4.22;;
78298;SDS011;67556;55.656;12.590;2024-03-08T12:51:38;7.72;;;4.75;;
78298;SDS011;67556;55.656;12.590;2024-03-08T12:54:06;5.10;;;3.83;;
78298;SDS011;67556;55.656;12.590;2024-03-08T12:56:39;5.47;;;3.70;;
78298;SDS011;67556;55.656;12.590;2024-03-08T12:59:08;5.60;;;4.22;;
78298;SDS011;67556;55.656;12.590;2024-03-08T13:01:35;5.13;;;3.95;;
78298;SDS011;67556;55.656;12.590;2024-03-08T13:04:02;6.47;;;4.07;;
78298;SDS011;67556;55.656;12.590;2024-03-08T13:06:37;5.65;;;3.75;;
78298;SDS011;67556;55.656;12.590;2024-03-08T13:09:04;5.97;;;3.88;;
78298;SDS011;67556;55.656;12.590;2024-03-08T13:11:31;4.50;;;3.97;;
78298;SDS011;67556;55.656;12.590;2024-03-08T13:14:01;4.65;;;3.85;;
78298;SDS011;67556;55.656;12.590;2024-03-08T13:16:30;4.95;;;4.07;;
78298;SDS011;67556;55.656;12.590;2024-03-08T13:18:57;6.15;;;4.47;;
78298;SDS011;67556;55.656;12.590;2024-03-08T13:21:31;5.15;;;4.20;;
78298;SDS011;67556;55.656;12.590;2024-03-08T13:24:01;4.82;;;4.03;;
78298;SDS011;67556;55.656;12.590;2024-03-08T13:26:28;5.97;;;4.32;;
78298;SDS011;67556;55.656;12.590;2024-03-08T13:29:03;4.85;;;3.90;;
78298;SDS011;67556;55.656;12.590;2024-03-08T13:31:47;5.80;;;4.80;;
78298;SDS011;67556;55.656;12.590;2024-03-08T13:34:16;4.50;;;3.45;;
78298;SDS011;67556;55.656;12.590;2024-03-08T13:37:02;4.90;;;3.83;;
78298;SDS011;67556;55.656;12.590;2024-03-08T13:39:31;5.75;;;3.72;;
78298;SDS011;67556;55.656;12.590;2024-03-08T13:42:17;4.45;;;3.15;;
78298;SDS011;67556;55.656;12.590;2024-03-08T13:44:54;4.68;;;3.33;;
78298;SDS011;67556;55.656;12.590;2024-03-08T13:47:30;3.50;;;3.20;;
78298;SDS011;67556;55.656;12.590;2024-03-08T13:50:15;5.32;;;3.58;;
78298;SDS011;67556;55.656;12.590;2024-03-08T13:52:48;3.85;;;3.45;;
78298;SDS011;67556;55.656;12.590;2024-03-08T13:55:24;4.82;;;3.80;;
78298;SDS011;67556;55.656;12.590;2024-03-08T13:57:54;4.47;;;3.70;;
78298;SDS011;67556;55.656;12.590;2024-03-08T14:00:41;4.43;;;3.33;;
78298;SDS011;67556;55.656;12.590;2024-03-08T14:03:10;3.67;;;3.28;;
78298;SDS011;67556;55.656;12.590;2024-03-08T14:05:50;6.88;;;3.92;;
78298;SDS011;67556;55.656;12.590;2024-03-08T14:08:35;4.40;;;3.28;;
78298;SDS011;67556;55.656;12.590;2024-03-08T14:11:09;4.55;;;3.65;;
78298;SDS011;67556;55.656;12.590;2024-03-08T14:13:41;4.10;;;3.40;;
78298;SDS011;67556;55.656;12.590;2024-03-08T14:16:29;4.60;;;3.53;;
78298;SDS011;67556;55.656;12.590;2024-03-08T14:19:19;4.30;;;3.55;;
78298;SDS011;67556;55.656;12.590;2024-03-08T14:21:57;4.55;;;3.20;;
78298;SDS011;67556;55.656;12.590;2024-03-08T14:24:43;4.85;;;3.60;;
78298;SDS011;67556;55.656;12.590;2024-03-08T14:27:11;4.32;;;3.40;;
78298;SDS011;67556;55.656;12.590;2024-03-08T14:30:01;4.55;;;4.10;;
78298;SDS011;67556;55.656;12.590;2024-03-08T14:32:42;3.97;;;3.20;;
78298;SDS011;67556;55.656;12.590;2024-03-08T14:35:17;4.03;;;3.63;;
78298;SDS011;67556;55.656;12.590;2024-03-08T14:38:06;3.83;;;3.22;;
78298;SDS011;67556;55.656;12.590;2024-03-08T14:40:34;3.80;;;3.28;;
78298;SDS011;67556;55.656;12.590;2024-03-08T14:43:19;5.20;;;3.60;;